Terminal Aerodrome Forecast
Issued by NWS

Home | Current Version | Previous Version | Text Only | Print | Product List | Glossary On
Versions: 1 2 3 4 5 6 7 8 9 10 11 12 13 14 15 16 17 18 19 20 21 22 23 24 25 26 27 28 29 30 31 32 33 34 35 36 37 38 39 40 41 42 43 44
000
FTUS43 KLOT 231800 AAA
TAFORD
TAF AMD
KORD 231807Z 2318/2424 07009KT P6SM VCSH BKN030
     FM231900 07009KT 5SM SHRA SCT015 BKN025
      TEMPO 2319/2321 26015G23KT 2SM TSRA OVC015CB
     FM232200 09009KT 6SM BR VCSH SCT015 BKN030
     FM240100 10005KT 6SM BR SCT020 BKN035
     FM240600 11005KT 3SM BR SCT007 BKN200
     FM241400 14008KT P6SM SCT015 BKN200
     FM242100 09010KT P6SM SCT025=

USA.gov is the U.S. government's official web portal to all federal, state and local government web resources and services.